Belgrade, MT (59714)

8:05 PM MST on February 20, 2018 (GMT -0700)
Quaw Blvd | | Change Station
Active Advisory: Wind Chill Advisory Active Notice: Record Report

Elev 4454 ft 45.78 °N, 111.18 °W | Updated 1 second ago

Clear
Clear
-2.9 °F
Feels Like -3 °F
N
0.0
Wind Variable Wind from SSW
Gusts 0.0 mph

Today
High -- | Low -- °F
--% Chance of Precip.
Yesterday
High -- | Low -- °F
Precip. -- in
Pressure 30.43 in
Visibility 10.0 miles
Clouds Clear
Windchill -3 °F
Dew Point -8 °F
Humidity 78%
Rainfall 0.00 in
Snow Depth Not available.
7:18 AM 5:58 PM
Waxing Crescent, 27% visible
METAR KBZN 210256Z 19003KT 10SM CLR M20/M24 A3007 RMK AO2 SLP305 T12001244 53008
Pressure 30.43 in
Visibility 10.0 miles
Clouds Clear
Windchill -3 °F
Dew Point -8 °F
Humidity 78%
Rainfall 0.00 in
Snow Depth Not available.
7:18 AM 5:58 PM
Waxing Crescent, 27% visible
METAR KBZN 210256Z 19003KT 10SM CLR M20/M24 A3007 RMK AO2 SLP305 T12001244 53008

Get Your Daily Forecast Email!

Thanks for signing up!

Be on the lookout for a verification email in your inbox.

You'll start receiving severe weather alerts in your inbox..

×

10-Day Weather Forecast

Almanac

Astronomy

Feb. 20, 2018 Rise Set
Actual Time
Civil Twilight
Nautical Twilight
Astronomical Twilight
Moon
Length of Visible Light
Length of Day
Tomorrow will be .
, % of the Moon is Illuminated

Today's Extremes

State Highs State Lows

Community

WunderPhotos

Category 6

Welcome to Category 6. This is the collective home for Weather Underground's featured writeups by Dr. Jeff Masters (right), Bob Henson (left), Chris Burt, and other regular contributors.

Nearby

Air Quality

  Air Quality AQ Index Pollutant
Not available.

Snow Depth

Station Depth Elevation

Earthquake Activity

City Distance Mag. Time & Date
Minimum magnitude displayed is 2.5.

Coastal Water Temperatures

Place Temperature

Stations

Nearby Weather Stations

Station Location Temp. Windchill Dew Point Humidity Wind Precip. Elev Updated Type
                   

Watches & Warnings

Wind Chill Advisory
Issued: 2:25 PM MST Feb. 20, 2018 – National Weather Service

... Wind Chill Advisory in effect from 6 PM this evening to 11 am
MST Wednesday...

* what... very cold wind chills expected. Expect wind chills as
low as 25 below zero.

* Where... central and southern portions of Beaverhead, Madison and
Gallatin counties.

* When... from 6 PM this evening to 11 am MST Wednesday.

* Additional details... the cold wind chills could cause
frostbite on exposed skin in as little as 30 minutes.

Precautionary/preparedness actions...

A Wind Chill Advisory means that cold air and the wind will
combine to create low wind chills. Frostbite and hypothermia can
occur if precautions are not taken. Make sure you wear a hat and
gloves.



Http://www.Weather.Gov/greatfalls